sensor_id;sensor_type;location;lat;lon;timestamp;temperature;humidity
12845;DHT22;68700;48.534;9.196;2023-12-20T00:03:06;6.10;1.00
12845;DHT22;68700;48.534;9.196;2023-12-20T00:06:30;6.00;1.00
12845;DHT22;68700;48.534;9.196;2023-12-20T00:09:52;6.00;1.00
12845;DHT22;68700;48.534;9.196;2023-12-20T00:13:13;6.10;1.00
12845;DHT22;68700;48.534;9.196;2023-12-20T00:16:35;6.10;1.00
12845;DHT22;68700;48.534;9.196;2023-12-20T00:19:57;6.10;1.00
12845;DHT22;68700;48.534;9.196;2023-12-20T00:23:20;6.00;1.00
12845;DHT22;68700;48.534;9.196;2023-12-20T00:26:43;6.00;1.00
12845;DHT22;68700;48.534;9.196;2023-12-20T00:30:08;6.10;1.00
12845;DHT22;68700;48.534;9.196;2023-12-20T00:33:30;6.20;1.00
12845;DHT22;68700;48.534;9.196;2023-12-20T00:36:52;6.20;1.00
12845;DHT22;68700;48.534;9.196;2023-12-20T00:40:16;6.20;1.00
12845;DHT22;68700;48.534;9.196;2023-12-20T00:43:38;6.30;1.00
12845;DHT22;68700;48.534;9.196;2023-12-20T00:47:00;6.40;1.00
12845;DHT22;68700;48.534;9.196;2023-12-20T00:50:22;6.50;1.00
12845;DHT22;68700;48.534;9.196;2023-12-20T00:53:43;6.60;1.00
12845;DHT22;68700;48.534;9.196;2023-12-20T00:57:08;6.60;1.00
12845;DHT22;68700;48.534;9.196;2023-12-20T01:00:29;6.60;1.00
12845;DHT22;68700;48.534;9.196;2023-12-20T01:03:51;6.70;1.00
12845;DHT22;68700;48.534;9.196;2023-12-20T01:07:13;6.80;1.00
12845;DHT22;68700;48.534;9.196;2023-12-20T01:10:35;6.90;1.00
12845;DHT22;68700;48.534;9.196;2023-12-20T01:13:58;6.90;1.00
12845;DHT22;68700;48.534;9.196;2023-12-20T01:17:20;7.00;1.00
12845;DHT22;68700;48.534;9.196;2023-12-20T01:20:42;7.00;1.00
12845;DHT22;68700;48.534;9.196;2023-12-20T01:24:04;7.00;1.00
12845;DHT22;68700;48.534;9.196;2023-12-20T01:27:25;6.90;1.00
12845;DHT22;68700;48.534;9.196;2023-12-20T01:30:48;6.70;1.00
12845;DHT22;68700;48.534;9.196;2023-12-20T01:34:10;6.70;1.00
12845;DHT22;68700;48.534;9.196;2023-12-20T01:37:32;6.60;1.00
12845;DHT22;68700;48.534;9.196;2023-12-20T01:40:54;6.50;1.00
12845;DHT22;68700;48.534;9.196;2023-12-20T01:44:16;6.40;1.00
12845;DHT22;68700;48.534;9.196;2023-12-20T01:47:39;6.40;1.00
12845;DHT22;68700;48.534;9.196;2023-12-20T01:51:02;6.30;1.00
12845;DHT22;68700;48.534;9.196;2023-12-20T01:54:24;6.20;32.80
12845;DHT22;68700;48.534;9.196;2023-12-20T01:57:46;6.20;49.40
12845;DHT22;68700;48.534;9.196;2023-12-20T02:01:09;6.10;87.80
12845;DHT22;68700;48.534;9.196;2023-12-20T02:04:32;6.00;99.90
12845;DHT22;68700;48.534;9.196;2023-12-20T02:07:54;6.00;99.90
12845;DHT22;68700;48.534;9.196;2023-12-20T02:11:16;6.00;99.90
12845;DHT22;68700;48.534;9.196;2023-12-20T02:14:38;6.00;99.90
12845;DHT22;68700;48.534;9.196;2023-12-20T02:18:00;5.90;99.90
12845;DHT22;68700;48.534;9.196;2023-12-20T02:21:32;5.80;99.90
12845;DHT22;68700;48.534;9.196;2023-12-20T02:24:54;5.80;99.90
12845;DHT22;68700;48.534;9.196;2023-12-20T02:28:16;5.70;99.90
12845;DHT22;68700;48.534;9.196;2023-12-20T02:31:38;5.80;99.90
12845;DHT22;68700;48.534;9.196;2023-12-20T02:35:00;5.80;99.90
12845;DHT22;68700;48.534;9.196;2023-12-20T02:38:23;5.80;99.90
12845;DHT22;68700;48.534;9.196;2023-12-20T02:41:44;5.90;99.90
12845;DHT22;68700;48.534;9.196;2023-12-20T02:45:07;5.90;99.90
12845;DHT22;68700;48.534;9.196;2023-12-20T02:48:29;5.80;99.90
12845;DHT22;68700;48.534;9.196;2023-12-20T02:51:51;5.80;99.90
12845;DHT22;68700;48.534;9.196;2023-12-20T02:55:14;5.80;99.90
12845;DHT22;68700;48.534;9.196;2023-12-20T02:58:36;5.80;99.90
12845;DHT22;68700;48.534;9.196;2023-12-20T03:01:58;5.80;99.90
12845;DHT22;68700;48.534;9.196;2023-12-20T03:05:20;5.80;99.90
12845;DHT22;68700;48.534;9.196;2023-12-20T03:08:41;5.90;99.90
12845;DHT22;68700;48.534;9.196;2023-12-20T03:12:05;5.80;99.90
12845;DHT22;68700;48.534;9.196;2023-12-20T03:15:27;5.80;99.90
12845;DHT22;68700;48.534;9.196;2023-12-20T03:18:48;5.90;99.90
12845;DHT22;68700;48.534;9.196;2023-12-20T03:22:10;5.80;99.90
12845;DHT22;68700;48.534;9.196;2023-12-20T03:25:32;5.90;99.90
12845;DHT22;68700;48.534;9.196;2023-12-20T03:28:55;5.80;99.90
12845;DHT22;68700;48.534;9.196;2023-12-20T03:32:17;5.80;99.90
12845;DHT22;68700;48.534;9.196;2023-12-20T03:35:39;5.80;99.90
12845;DHT22;68700;48.534;9.196;2023-12-20T03:39:00;5.80;99.90
12845;DHT22;68700;48.534;9.196;2023-12-20T03:42:22;5.80;99.90
12845;DHT22;68700;48.534;9.196;2023-12-20T03:45:45;5.80;99.90
12845;DHT22;68700;48.534;9.196;2023-12-20T03:49:07;5.80;99.90
12845;DHT22;68700;48.534;9.196;2023-12-20T03:52:29;5.80;99.90
12845;DHT22;68700;48.534;9.196;2023-12-20T03:55:50;5.80;99.90
12845;DHT22;68700;48.534;9.196;2023-12-20T03:59:12;5.80;99.90
12845;DHT22;68700;48.534;9.196;2023-12-20T04:02:35;5.80;99.90
12845;DHT22;68700;48.534;9.196;2023-12-20T04:05:57;5.70;99.90
12845;DHT22;68700;48.534;9.196;2023-12-20T04:09:19;5.70;99.90
12845;DHT22;68700;48.534;9.196;2023-12-20T04:12:44;5.70;99.90
12845;DHT22;68700;48.534;9.196;2023-12-20T04:16:06;5.60;99.90
12845;DHT22;68700;48.534;9.196;2023-12-20T04:19:29;5.60;99.90
12845;DHT22;68700;48.534;9.196;2023-12-20T04:22:51;5.70;99.90
12845;DHT22;68700;48.534;9.196;2023-12-20T04:26:12;5.60;99.90
12845;DHT22;68700;48.534;9.196;2023-12-20T04:29:34;5.60;99.90
12845;DHT22;68700;48.534;9.196;2023-12-20T04:32:56;5.60;99.90
12845;DHT22;68700;48.534;9.196;2023-12-20T04:36:19;5.60;99.90
12845;DHT22;68700;48.534;9.196;2023-12-20T04:39:41;5.50;99.90
12845;DHT22;68700;48.534;9.196;2023-12-20T04:43:03;5.50;99.90
12845;DHT22;68700;48.534;9.196;2023-12-20T04:46:25;5.60;99.90
12845;DHT22;68700;48.534;9.196;2023-12-20T04:49:47;5.60;99.90
12845;DHT22;68700;48.534;9.196;2023-12-20T04:53:10;5.50;99.90
12845;DHT22;68700;48.534;9.196;2023-12-20T04:56:32;5.50;99.90
12845;DHT22;68700;48.534;9.196;2023-12-20T04:59:54;5.50;99.90
12845;DHT22;68700;48.534;9.196;2023-12-20T05:03:15;5.50;99.90
12845;DHT22;68700;48.534;9.196;2023-12-20T05:06:37;5.50;99.90
12845;DHT22;68700;48.534;9.196;2023-12-20T05:10:00;5.50;99.90
12845;DHT22;68700;48.534;9.196;2023-12-20T05:13:22;5.50;99.90
12845;DHT22;68700;48.534;9.196;2023-12-20T05:16:44;5.50;99.90
12845;DHT22;68700;48.534;9.196;2023-12-20T05:20:07;5.60;99.90
12845;DHT22;68700;48.534;9.196;2023-12-20T05:23:29;5.60;99.90
12845;DHT22;68700;48.534;9.196;2023-12-20T05:26:52;5.50;99.90
12845;DHT22;68700;48.534;9.196;2023-12-20T05:30:14;5.60;99.90
12845;DHT22;68700;48.534;9.196;2023-12-20T05:33:36;5.60;99.90
12845;DHT22;68700;48.534;9.196;2023-12-20T05:36:58;5.60;99.90
12845;DHT22;68700;48.534;9.196;2023-12-20T05:40:20;5.60;99.90
12845;DHT22;68700;48.534;9.196;2023-12-20T05:43:43;5.60;99.90
12845;DHT22;68700;48.534;9.196;2023-12-20T05:47:05;5.60;99.90
12845;DHT22;68700;48.534;9.196;2023-12-20T05:50:27;5.60;99.90
12845;DHT22;68700;48.534;9.196;2023-12-20T05:53:48;5.50;99.90
12845;DHT22;68700;48.534;9.196;2023-12-20T05:57:11;5.50;99.90
12845;DHT22;68700;48.534;9.196;2023-12-20T06:00:34;5.40;99.90
12845;DHT22;68700;48.534;9.196;2023-12-20T06:03:56;5.50;99.90
12845;DHT22;68700;48.534;9.196;2023-12-20T06:07:18;5.50;99.90
12845;DHT22;68700;48.534;9.196;2023-12-20T06:10:40;5.50;99.90
12845;DHT22;68700;48.534;9.196;2023-12-20T06:14:01;5.60;99.90
12845;DHT22;68700;48.534;9.196;2023-12-20T06:17:24;5.60;99.90
12845;DHT22;68700;48.534;9.196;2023-12-20T06:20:46;5.50;99.90
12845;DHT22;68700;48.534;9.196;2023-12-20T06:24:08;5.50;99.90
12845;DHT22;68700;48.534;9.196;2023-12-20T06:27:30;5.50;99.90
12845;DHT22;68700;48.534;9.196;2023-12-20T06:30:53;5.50;99.90
12845;DHT22;68700;48.534;9.196;2023-12-20T06:34:16;5.40;99.90
12845;DHT22;68700;48.534;9.196;2023-12-20T06:37:38;5.40;99.90
12845;DHT22;68700;48.534;9.196;2023-12-20T06:41:03;5.40;99.90
12845;DHT22;68700;48.534;9.196;2023-12-20T06:44:24;5.40;99.90
12845;DHT22;68700;48.534;9.196;2023-12-20T06:47:46;5.40;99.90
12845;DHT22;68700;48.534;9.196;2023-12-20T06:51:12;5.40;99.90
12845;DHT22;68700;48.534;9.196;2023-12-20T06:54:34;5.40;99.90
12845;DHT22;68700;48.534;9.196;2023-12-20T06:57:55;5.40;99.90
12845;DHT22;68700;48.534;9.196;2023-12-20T07:01:17;5.40;99.90
12845;DHT22;68700;48.534;9.196;2023-12-20T07:04:40;5.40;99.90
12845;DHT22;68700;48.534;9.196;2023-12-20T07:08:03;5.40;99.90
12845;DHT22;68700;48.534;9.196;2023-12-20T07:11:25;5.40;99.90
12845;DHT22;68700;48.534;9.196;2023-12-20T07:14:47;5.40;99.90
12845;DHT22;68700;48.534;9.196;2023-12-20T07:18:09;5.40;99.90
12845;DHT22;68700;48.534;9.196;2023-12-20T07:21:31;5.50;99.90
12845;DHT22;68700;48.534;9.196;2023-12-20T07:24:54;5.50;99.90
12845;DHT22;68700;48.534;9.196;2023-12-20T07:28:16;5.50;99.90
12845;DHT22;68700;48.534;9.196;2023-12-20T07:31:38;5.60;99.90
12845;DHT22;68700;48.534;9.196;2023-12-20T07:35:00;5.60;99.90
12845;DHT22;68700;48.534;9.196;2023-12-20T07:38:21;5.60;99.90
12845;DHT22;68700;48.534;9.196;2023-12-20T07:41:45;5.60;99.90
12845;DHT22;68700;48.534;9.196;2023-12-20T07:45:07;5.60;99.90
12845;DHT22;68700;48.534;9.196;2023-12-20T07:48:29;5.70;99.90
12845;DHT22;68700;48.534;9.196;2023-12-20T07:51:51;5.70;99.90
12845;DHT22;68700;48.534;9.196;2023-12-20T07:55:13;5.70;99.90
12845;DHT22;68700;48.534;9.196;2023-12-20T07:58:36;5.70;99.90
12845;DHT22;68700;48.534;9.196;2023-12-20T08:01:58;5.70;99.90
12845;DHT22;68700;48.534;9.196;2023-12-20T08:05:20;5.70;99.90
12845;DHT22;68700;48.534;9.196;2023-12-20T08:08:42;5.80;99.90
12845;DHT22;68700;48.534;9.196;2023-12-20T08:12:04;5.80;99.90
12845;DHT22;68700;48.534;9.196;2023-12-20T08:15:27;5.90;99.90
12845;DHT22;68700;48.534;9.196;2023-12-20T08:18:50;5.80;99.90
12845;DHT22;68700;48.534;9.196;2023-12-20T08:22:12;5.90;99.90
12845;DHT22;68700;48.534;9.196;2023-12-20T08:25:33;5.80;99.90
12845;DHT22;68700;48.534;9.196;2023-12-20T08:28:55;5.90;99.90
12845;DHT22;68700;48.534;9.196;2023-12-20T08:32:19;6.00;99.90
12845;DHT22;68700;48.534;9.196;2023-12-20T08:35:40;6.00;99.90
12845;DHT22;68700;48.534;9.196;2023-12-20T08:39:02;6.10;99.90
12845;DHT22;68700;48.534;9.196;2023-12-20T08:42:27;6.20;99.90
12845;DHT22;68700;48.534;9.196;2023-12-20T08:45:51;6.30;99.90
12845;DHT22;68700;48.534;9.196;2023-12-20T08:49:15;6.40;99.90
12845;DHT22;68700;48.534;9.196;2023-12-20T08:52:36;6.40;99.90
12845;DHT22;68700;48.534;9.196;2023-12-20T08:55:58;6.40;99.90
12845;DHT22;68700;48.534;9.196;2023-12-20T08:59:21;6.40;99.90
12845;DHT22;68700;48.534;9.196;2023-12-20T09:02:43;6.40;99.90
12845;DHT22;68700;48.534;9.196;2023-12-20T09:06:06;6.40;99.90
12845;DHT22;68700;48.534;9.196;2023-12-20T09:09:28;6.40;99.90
12845;DHT22;68700;48.534;9.196;2023-12-20T09:12:53;6.30;99.90
12845;DHT22;68700;48.534;9.196;2023-12-20T09:16:17;6.40;99.90
12845;DHT22;68700;48.534;9.196;2023-12-20T09:19:39;6.20;99.90
12845;DHT22;68700;48.534;9.196;2023-12-20T09:23:02;6.20;99.90
12845;DHT22;68700;48.534;9.196;2023-12-20T09:26:24;5.90;99.90
12845;DHT22;68700;48.534;9.196;2023-12-20T09:29:46;5.90;99.90
12845;DHT22;68700;48.534;9.196;2023-12-20T09:33:09;6.00;99.90
12845;DHT22;68700;48.534;9.196;2023-12-20T09:36:30;6.10;69.60
12845;DHT22;68700;48.534;9.196;2023-12-20T09:39:57;6.20;25.50
12845;DHT22;68700;48.534;9.196;2023-12-20T09:43:20;6.30;1.00
12845;DHT22;68700;48.534;9.196;2023-12-20T09:46:48;6.40;1.00
12845;DHT22;68700;48.534;9.196;2023-12-20T09:50:11;6.20;1.00
12845;DHT22;68700;48.534;9.196;2023-12-20T09:53:37;6.30;1.00
12845;DHT22;68700;48.534;9.196;2023-12-20T09:57:01;7.20;1.00
12845;DHT22;68700;48.534;9.196;2023-12-20T10:00:23;8.20;1.00
12845;DHT22;68700;48.534;9.196;2023-12-20T10:03:45;8.50;1.00
12845;DHT22;68700;48.534;9.196;2023-12-20T10:07:06;9.60;1.00
12845;DHT22;68700;48.534;9.196;2023-12-20T10:10:28;10.00;1.00
12845;DHT22;68700;48.534;9.196;2023-12-20T10:13:52;10.30;1.00
12845;DHT22;68700;48.534;9.196;2023-12-20T10:17:21;10.20;1.00
12845;DHT22;68700;48.534;9.196;2023-12-20T10:20:44;10.10;1.00
12845;DHT22;68700;48.534;9.196;2023-12-20T10:24:07;9.80;1.00
12845;DHT22;68700;48.534;9.196;2023-12-20T10:27:28;10.80;1.00
12845;DHT22;68700;48.534;9.196;2023-12-20T10:30:52;11.30;1.00
12845;DHT22;68700;48.534;9.196;2023-12-20T10:34:14;12.00;1.00
12845;DHT22;68700;48.534;9.196;2023-12-20T10:37:36;12.80;1.00
12845;DHT22;68700;48.534;9.196;2023-12-20T10:40:59;11.40;1.00
12845;DHT22;68700;48.534;9.196;2023-12-20T10:44:22;10.20;1.00
12845;DHT22;68700;48.534;9.196;2023-12-20T10:47:46;10.80;1.00
12845;DHT22;68700;48.534;9.196;2023-12-20T10:51:08;11.00;1.00
12845;DHT22;68700;48.534;9.196;2023-12-20T10:54:31;10.10;1.00
12845;DHT22;68700;48.534;9.196;2023-12-20T10:57:56;9.50;1.00
12845;DHT22;68700;48.534;9.196;2023-12-20T11:01:22;9.90;1.00
12845;DHT22;68700;48.534;9.196;2023-12-20T11:04:51;10.00;1.00
12845;DHT22;68700;48.534;9.196;2023-12-20T11:08:25;11.00;1.00
12845;DHT22;68700;48.534;9.196;2023-12-20T11:12:05;11.80;1.00
12845;DHT22;68700;48.534;9.196;2023-12-20T11:15:30;11.00;1.00
12845;DHT22;68700;48.534;9.196;2023-12-20T11:18:52;9.80;1.00
12845;DHT22;68700;48.534;9.196;2023-12-20T11:22:15;8.40;1.00
12845;DHT22;68700;48.534;9.196;2023-12-20T11:25:47;7.80;1.00
12845;DHT22;68700;48.534;9.196;2023-12-20T11:29:29;7.30;1.00
12845;DHT22;68700;48.534;9.196;2023-12-20T11:32:51;7.60;1.00
12845;DHT22;68700;48.534;9.196;2023-12-20T11:36:14;7.70;1.00
12845;DHT22;68700;48.534;9.196;2023-12-20T11:39:37;7.30;1.00
12845;DHT22;68700;48.534;9.196;2023-12-20T11:42:59;7.10;1.00
12845;DHT22;68700;48.534;9.196;2023-12-20T11:46:21;7.20;1.00
12845;DHT22;68700;48.534;9.196;2023-12-20T11:49:43;7.00;1.00
12845;DHT22;68700;48.534;9.196;2023-12-20T11:53:05;6.80;1.00
12845;DHT22;68700;48.534;9.196;2023-12-20T11:56:28;6.80;1.00
12845;DHT22;68700;48.534;9.196;2023-12-20T11:59:50;6.60;1.00
12845;DHT22;68700;48.534;9.196;2023-12-20T12:03:15;6.70;1.00
12845;DHT22;68700;48.534;9.196;2023-12-20T12:06:37;6.70;1.00
12845;DHT22;68700;48.534;9.196;2023-12-20T12:09:59;6.70;1.00
12845;DHT22;68700;48.534;9.196;2023-12-20T12:13:22;6.90;1.00
12845;DHT22;68700;48.534;9.196;2023-12-20T12:16:48;6.70;1.00
12845;DHT22;68700;48.534;9.196;2023-12-20T12:20:11;6.70;1.00
12845;DHT22;68700;48.534;9.196;2023-12-20T12:23:33;6.60;1.00
12845;DHT22;68700;48.534;9.196;2023-12-20T12:26:57;6.70;1.00
12845;DHT22;68700;48.534;9.196;2023-12-20T12:30:20;6.90;1.00
12845;DHT22;68700;48.534;9.196;2023-12-20T12:33:42;7.00;1.00
12845;DHT22;68700;48.534;9.196;2023-12-20T12:37:04;6.80;1.00
12845;DHT22;68700;48.534;9.196;2023-12-20T12:40:26;6.50;1.00
12845;DHT22;68700;48.534;9.196;2023-12-20T12:43:48;6.50;1.00
12845;DHT22;68700;48.534;9.196;2023-12-20T12:47:11;6.40;1.00
12845;DHT22;68700;48.534;9.196;2023-12-20T12:50:33;6.30;1.00
12845;DHT22;68700;48.534;9.196;2023-12-20T12:53:56;6.40;1.00
12845;DHT22;68700;48.534;9.196;2023-12-20T12:57:18;6.30;1.00
12845;DHT22;68700;48.534;9.196;2023-12-20T13:00:40;6.30;1.00
12845;DHT22;68700;48.534;9.196;2023-12-20T13:04:04;6.30;1.00
12845;DHT22;68700;48.534;9.196;2023-12-20T13:07:30;6.30;1.00
12845;DHT22;68700;48.534;9.196;2023-12-20T13:10:53;6.30;1.00
12845;DHT22;68700;48.534;9.196;2023-12-20T13:14:16;6.30;1.00
12845;DHT22;68700;48.534;9.196;2023-12-20T13:17:37;6.10;1.00
12845;DHT22;68700;48.534;9.196;2023-12-20T13:21:01;6.30;1.00
12845;DHT22;68700;48.534;9.196;2023-12-20T13:24:23;6.20;1.00
12845;DHT22;68700;48.534;9.196;2023-12-20T13:27:45;6.20;1.00
12845;DHT22;68700;48.534;9.196;2023-12-20T13:31:07;6.30;1.00
12845;DHT22;68700;48.534;9.196;2023-12-20T13:34:29;6.30;1.00
12845;DHT22;68700;48.534;9.196;2023-12-20T13:37:52;6.60;1.00
12845;DHT22;68700;48.534;9.196;2023-12-20T13:41:14;6.70;1.00
12845;DHT22;68700;48.534;9.196;2023-12-20T13:44:35;6.50;1.00
12845;DHT22;68700;48.534;9.196;2023-12-20T13:47:58;6.60;1.00
12845;DHT22;68700;48.534;9.196;2023-12-20T13:51:20;7.00;1.00
12845;DHT22;68700;48.534;9.196;2023-12-20T13:54:43;6.90;1.00
12845;DHT22;68700;48.534;9.196;2023-12-20T13:58:05;6.60;1.00
12845;DHT22;68700;48.534;9.196;2023-12-20T14:01:27;6.50;1.00
12845;DHT22;68700;48.534;9.196;2023-12-20T14:04:49;6.50;1.00
12845;DHT22;68700;48.534;9.196;2023-12-20T14:08:10;6.50;1.00
12845;DHT22;68700;48.534;9.196;2023-12-20T14:11:34;6.40;1.00
12845;DHT22;68700;48.534;9.196;2023-12-20T14:15:01;6.40;1.00
12845;DHT22;68700;48.534;9.196;2023-12-20T14:18:23;6.30;1.00
12845;DHT22;68700;48.534;9.196;2023-12-20T14:21:45;6.40;1.00
12845;DHT22;68700;48.534;9.196;2023-12-20T14:25:08;6.40;1.00
12845;DHT22;68700;48.534;9.196;2023-12-20T14:28:32;6.30;1.00
12845;DHT22;68700;48.534;9.196;2023-12-20T14:31:54;6.30;1.00
12845;DHT22;68700;48.534;9.196;2023-12-20T14:35:16;6.20;1.00
12845;DHT22;68700;48.534;9.196;2023-12-20T14:38:37;6.20;1.00
12845;DHT22;68700;48.534;9.196;2023-12-20T14:41:59;6.10;1.00
12845;DHT22;68700;48.534;9.196;2023-12-20T14:45:22;6.00;1.00
12845;DHT22;68700;48.534;9.196;2023-12-20T14:48:44;6.00;1.00
12845;DHT22;68700;48.534;9.196;2023-12-20T14:52:06;5.90;1.00
12845;DHT22;68700;48.534;9.196;2023-12-20T14:55:31;5.90;1.00
12845;DHT22;68700;48.534;9.196;2023-12-20T14:58:54;5.90;1.00
12845;DHT22;68700;48.534;9.196;2023-12-20T15:02:17;5.80;1.00
12845;DHT22;68700;48.534;9.196;2023-12-20T15:05:39;5.80;1.00
12845;DHT22;68700;48.534;9.196;2023-12-20T15:09:01;5.80;1.00
12845;DHT22;68700;48.534;9.196;2023-12-20T15:12:25;5.80;1.00
12845;DHT22;68700;48.534;9.196;2023-12-20T15:15:47;5.70;1.00
12845;DHT22;68700;48.534;9.196;2023-12-20T15:19:10;5.70;1.00
12845;DHT22;68700;48.534;9.196;2023-12-20T15:22:32;5.60;1.00
12845;DHT22;68700;48.534;9.196;2023-12-20T15:25:55;5.60;1.00
12845;DHT22;68700;48.534;9.196;2023-12-20T15:29:17;5.60;1.00
12845;DHT22;68700;48.534;9.196;2023-12-20T15:32:39;5.50;1.00
12845;DHT22;68700;48.534;9.196;2023-12-20T15:36:03;5.60;1.00
12845;DHT22;68700;48.534;9.196;2023-12-20T15:39:25;5.50;1.00
12845;DHT22;68700;48.534;9.196;2023-12-20T15:42:47;5.50;1.00
12845;DHT22;68700;48.534;9.196;2023-12-20T15:46:09;5.40;1.00
12845;DHT22;68700;48.534;9.196;2023-12-20T15:49:31;5.40;1.00
12845;DHT22;68700;48.534;9.196;2023-12-20T15:52:54;5.30;1.00
12845;DHT22;68700;48.534;9.196;2023-12-20T15:56:16;5.20;1.00
12845;DHT22;68700;48.534;9.196;2023-12-20T15:59:38;5.10;1.00
12845;DHT22;68700;48.534;9.196;2023-12-20T16:03:00;5.10;1.00
12845;DHT22;68700;48.534;9.196;2023-12-20T16:06:23;5.10;1.00
12845;DHT22;68700;48.534;9.196;2023-12-20T16:09:46;5.00;1.00
12845;DHT22;68700;48.534;9.196;2023-12-20T16:13:08;5.10;1.00
12845;DHT22;68700;48.534;9.196;2023-12-20T16:16:30;5.10;1.00
12845;DHT22;68700;48.534;9.196;2023-12-20T16:19:52;5.00;1.00
12845;DHT22;68700;48.534;9.196;2023-12-20T16:23:13;5.10;1.00
12845;DHT22;68700;48.534;9.196;2023-12-20T16:26:37;5.10;1.00
12845;DHT22;68700;48.534;9.196;2023-12-20T16:29:59;5.00;1.00
12845;DHT22;68700;48.534;9.196;2023-12-20T16:33:21;5.00;1.00
12845;DHT22;68700;48.534;9.196;2023-12-20T16:36:50;5.00;1.00
12845;DHT22;68700;48.534;9.196;2023-12-20T16:40:12;5.00;1.00
12845;DHT22;68700;48.534;9.196;2023-12-20T16:43:36;5.00;1.00
12845;DHT22;68700;48.534;9.196;2023-12-20T16:46:57;5.00;1.00
12845;DHT22;68700;48.534;9.196;2023-12-20T16:50:19;5.00;1.00
12845;DHT22;68700;48.534;9.196;2023-12-20T16:53:41;5.00;1.00
12845;DHT22;68700;48.534;9.196;2023-12-20T16:57:03;5.10;1.00
12845;DHT22;68700;48.534;9.196;2023-12-20T17:00:26;5.10;1.00
12845;DHT22;68700;48.534;9.196;2023-12-20T17:03:48;5.00;1.00
12845;DHT22;68700;48.534;9.196;2023-12-20T17:07:11;5.00;1.00
12845;DHT22;68700;48.534;9.196;2023-12-20T17:10:32;5.00;1.00
12845;DHT22;68700;48.534;9.196;2023-12-20T17:13:54;5.00;1.00
12845;DHT22;68700;48.534;9.196;2023-12-20T17:17:19;5.00;1.00
12845;DHT22;68700;48.534;9.196;2023-12-20T17:20:41;5.10;1.00
12845;DHT22;68700;48.534;9.196;2023-12-20T17:24:03;5.10;1.00
12845;DHT22;68700;48.534;9.196;2023-12-20T17:27:25;5.20;1.00
12845;DHT22;68700;48.534;9.196;2023-12-20T17:30:47;5.20;1.00
12845;DHT22;68700;48.534;9.196;2023-12-20T17:34:10;5.20;1.00
12845;DHT22;68700;48.534;9.196;2023-12-20T17:37:33;5.20;1.00
12845;DHT22;68700;48.534;9.196;2023-12-20T17:40:55;5.20;1.00
12845;DHT22;68700;48.534;9.196;2023-12-20T17:44:16;5.30;1.00
12845;DHT22;68700;48.534;9.196;2023-12-20T17:47:39;5.30;1.00
12845;DHT22;68700;48.534;9.196;2023-12-20T17:51:02;5.30;1.00
12845;DHT22;68700;48.534;9.196;2023-12-20T17:54:24;5.40;1.00
12845;DHT22;68700;48.534;9.196;2023-12-20T17:57:47;5.30;1.00
12845;DHT22;68700;48.534;9.196;2023-12-20T18:01:08;5.30;1.00
12845;DHT22;68700;48.534;9.196;2023-12-20T18:04:31;5.30;1.00
12845;DHT22;68700;48.534;9.196;2023-12-20T18:07:54;5.30;1.00
12845;DHT22;68700;48.534;9.196;2023-12-20T18:11:16;5.30;1.00
12845;DHT22;68700;48.534;9.196;2023-12-20T18:14:38;5.30;1.00
12845;DHT22;68700;48.534;9.196;2023-12-20T18:18:00;5.30;1.00
12845;DHT22;68700;48.534;9.196;2023-12-20T18:21:22;5.20;1.00
12845;DHT22;68700;48.534;9.196;2023-12-20T18:24:45;5.20;1.00
12845;DHT22;68700;48.534;9.196;2023-12-20T18:28:06;5.30;1.00
12845;DHT22;68700;48.534;9.196;2023-12-20T18:31:28;5.30;1.00
12845;DHT22;68700;48.534;9.196;2023-12-20T18:34:50;5.30;1.00
12845;DHT22;68700;48.534;9.196;2023-12-20T18:38:12;5.30;1.00
12845;DHT22;68700;48.534;9.196;2023-12-20T18:41:35;5.30;1.00
12845;DHT22;68700;48.534;9.196;2023-12-20T18:44:57;5.30;1.00
12845;DHT22;68700;48.534;9.196;2023-12-20T18:48:20;5.30;1.00
12845;DHT22;68700;48.534;9.196;2023-12-20T18:51:43;5.30;1.00
12845;DHT22;68700;48.534;9.196;2023-12-20T18:55:05;5.30;1.00
12845;DHT22;68700;48.534;9.196;2023-12-20T18:58:29;5.30;1.00
12845;DHT22;68700;48.534;9.196;2023-12-20T19:01:51;5.40;1.00
12845;DHT22;68700;48.534;9.196;2023-12-20T19:05:13;5.30;1.00
12845;DHT22;68700;48.534;9.196;2023-12-20T19:08:35;5.40;1.00
12845;DHT22;68700;48.534;9.196;2023-12-20T19:12:00;5.40;1.00
12845;DHT22;68700;48.534;9.196;2023-12-20T19:15:23;5.40;1.00
12845;DHT22;68700;48.534;9.196;2023-12-20T19:18:45;5.40;1.00
12845;DHT22;68700;48.534;9.196;2023-12-20T19:22:07;5.30;1.00
12845;DHT22;68700;48.534;9.196;2023-12-20T19:25:28;5.30;1.00
12845;DHT22;68700;48.534;9.196;2023-12-20T19:28:50;5.30;1.00
12845;DHT22;68700;48.534;9.196;2023-12-20T19:32:13;5.30;1.00
12845;DHT22;68700;48.534;9.196;2023-12-20T19:35:35;5.30;1.00
12845;DHT22;68700;48.534;9.196;2023-12-20T19:38:57;5.30;1.00
12845;DHT22;68700;48.534;9.196;2023-12-20T19:42:20;5.20;1.00
12845;DHT22;68700;48.534;9.196;2023-12-20T19:45:42;5.20;1.00
12845;DHT22;68700;48.534;9.196;2023-12-20T19:49:05;5.20;1.00
12845;DHT22;68700;48.534;9.196;2023-12-20T19:52:27;5.20;1.00
12845;DHT22;68700;48.534;9.196;2023-12-20T19:55:49;5.30;1.00
12845;DHT22;68700;48.534;9.196;2023-12-20T19:59:11;5.30;1.00
12845;DHT22;68700;48.534;9.196;2023-12-20T20:02:33;5.30;1.00
12845;DHT22;68700;48.534;9.196;2023-12-20T20:05:57;5.30;1.00
12845;DHT22;68700;48.534;9.196;2023-12-20T20:09:19;5.20;1.00
12845;DHT22;68700;48.534;9.196;2023-12-20T20:12:41;5.30;1.00
12845;DHT22;68700;48.534;9.196;2023-12-20T20:16:03;5.30;1.00
12845;DHT22;68700;48.534;9.196;2023-12-20T20:19:25;5.20;1.00
12845;DHT22;68700;48.534;9.196;2023-12-20T20:22:50;5.20;1.00
12845;DHT22;68700;48.534;9.196;2023-12-20T20:26:12;5.10;1.00
12845;DHT22;68700;48.534;9.196;2023-12-20T20:29:34;5.20;1.00
12845;DHT22;68700;48.534;9.196;2023-12-20T20:32:55;5.20;1.00
12845;DHT22;68700;48.534;9.196;2023-12-20T20:36:17;5.20;1.00
12845;DHT22;68700;48.534;9.196;2023-12-20T20:39:40;5.30;1.00
12845;DHT22;68700;48.534;9.196;2023-12-20T20:43:02;5.30;1.00
12845;DHT22;68700;48.534;9.196;2023-12-20T20:46:24;5.30;1.00
12845;DHT22;68700;48.534;9.196;2023-12-20T20:49:47;5.30;1.00
12845;DHT22;68700;48.534;9.196;2023-12-20T20:53:09;5.30;1.00
12845;DHT22;68700;48.534;9.196;2023-12-20T20:56:32;5.30;1.00
12845;DHT22;68700;48.534;9.196;2023-12-20T20:59:54;5.30;1.00
12845;DHT22;68700;48.534;9.196;2023-12-20T21:03:16;5.30;1.00
12845;DHT22;68700;48.534;9.196;2023-12-20T21:06:38;5.30;1.00
12845;DHT22;68700;48.534;9.196;2023-12-20T21:10:00;5.30;1.00
12845;DHT22;68700;48.534;9.196;2023-12-20T21:13:23;5.30;1.00
12845;DHT22;68700;48.534;9.196;2023-12-20T21:16:45;5.30;1.00
12845;DHT22;68700;48.534;9.196;2023-12-20T21:20:08;5.30;1.00
12845;DHT22;68700;48.534;9.196;2023-12-20T21:23:30;5.40;1.00
12845;DHT22;68700;48.534;9.196;2023-12-20T21:26:51;5.30;1.00
12845;DHT22;68700;48.534;9.196;2023-12-20T21:30:15;5.30;1.00
12845;DHT22;68700;48.534;9.196;2023-12-20T21:33:36;5.30;1.00
12845;DHT22;68700;48.534;9.196;2023-12-20T21:37:00;5.30;1.00
12845;DHT22;68700;48.534;9.196;2023-12-20T21:40:22;5.30;1.00
12845;DHT22;68700;48.534;9.196;2023-12-20T21:43:44;5.30;1.00
12845;DHT22;68700;48.534;9.196;2023-12-20T21:47:07;5.40;1.00
12845;DHT22;68700;48.534;9.196;2023-12-20T21:50:29;5.40;1.00
12845;DHT22;68700;48.534;9.196;2023-12-20T21:53:50;5.40;1.00